Valle Toledo, Valles Caldera, New Mexico Weather observations

Data are for 10 minute period ending at time listed.
 Day   Time   Solar   Ave.   Ave.  Ave.  Vector  Max.   Baro.   Total    
  of    of     Rad.   Air    Rel.  Wind   Wind   Wind  Press.  Precip.   
Year   Day            Temp.  Hum.  Speed  Dir.   Gust                    
2026   (MST)  Kw/m2    F      %     mph   deg.    mph    mb.     in.     
-------------------------------------------------------------------------
 126    1:10   0.00   31.1    81    0.0     0     0.0   726.4    0.00 
 126    1:20   0.00   31.3    80    0.7   110    11.9   726.3    0.00 
 126    1:30   0.00   31.6    79    0.9    87     5.4   726.1    0.00 
 126    1:40   0.00   31.2    80    0.0   116     1.2   725.9    0.00 
 126    1:50   0.00   30.9    80    0.3    88     6.0   725.9    0.00 
 126    2:00   0.00   30.9    80    0.6   112     4.8   725.8    0.00 
 126    2:10   0.00   31.1    79    0.4    88    14.3   725.7    0.00 
 126    2:20   0.00   31.2    79    0.2   116     3.0   725.6    0.00 
 126    2:30   0.00   31.3    79    0.0     0     0.0   725.6    0.00 
 126    2:40   0.00   31.3    80    3.3   120     8.4   725.6    0.00 
 126    2:50   0.00   31.1    81    0.6   107     4.2   725.6    0.00 
 126    3:00   0.00   30.9    82    1.0    82     7.8   725.6    0.00 
 126    3:10   0.00   30.8    83    0.4    69     8.4   725.6    0.00 
 126    3:20   0.00   30.8    83    2.7   116     9.6   725.8    0.00 
 126    3:30   0.00   30.7    83    1.4   100     9.0   725.8    0.00 
 126    3:40   0.00   30.8    82    0.0     0     0.0   725.7    0.00 
 126    3:50   0.00   30.6    84    0.0     0     0.0   725.6    0.00 
 126    4:00   0.00   30.4    84    0.0     0     0.0   725.6    0.00 
 126    4:10   0.00   30.4    84    0.0     0     0.0   725.7    0.00 
 126    4:20   0.00   30.3    85    0.0     0     0.0   725.8    0.00 
 126    4:30   0.00   30.3    85    0.0     0     0.0   725.9    0.00 
 126    4:40   0.00   30.2    85    0.0     0     0.0   726.1    0.00 
 126    4:50   0.00   30.3    84    0.0     0     0.0   726.2    0.00 
 126    5:00   0.00   30.2    85    0.0     0     0.0   726.3    0.00 
 126    5:10   0.00   29.9    87    0.0     0     0.0   726.3    0.00 
 126    5:20   0.00   29.7    88    0.0     0     0.0   726.4    0.00 
 126    5:30   0.01   29.7    89    0.0     0     0.0   726.5    0.00 
 126    5:40   0.02   29.8    88    0.0     0     0.0   726.3    0.00 
 126    5:50   0.03   30.1    87    0.0     0     0.0   726.4    0.00 
 126    6:00   0.09   30.6    83    0.0     0     0.0   726.6    0.00 
 126    6:10   0.10   31.2    81    0.0     0     0.0   726.6    0.00 
 126    6:20   0.09   31.4    80    0.0     0     0.0   726.5    0.00 
 126    6:30   0.10   31.6    80    0.0     0     0.0   726.6    0.00 
 126    6:40   0.16   31.7    79    0.0     0     0.0   726.7    0.00 
 126    6:50   0.16   32.0    78    0.0     0     0.0   726.7    0.00 
 126    7:00   0.23   33.0    77    0.0    22     1.2   726.7    0.00 
 126    7:10   0.10   31.8    79    3.8    67    10.8   726.7    0.00 
 126    7:20   0.17   32.0    80    2.3    70     7.2   726.7    0.00 
 126    7:30   0.24   32.8    79    0.5    42     7.2   726.8    0.00 
 126    7:40   0.19   33.3    78    3.2    57     9.6   727.1    0.00 
 126    7:50   0.16   33.0    78    0.8    66     7.2   727.1    0.00 
 126    8:00   0.18   33.3    78    1.4    60     5.4   727.0    0.00 
 126    8:10   0.31   34.0    77    0.0     0     0.0   727.0    0.00 
 126    8:20   0.57   36.1    73    0.0     0     0.0   727.0    0.00 
 126    8:30   0.56   37.3    70    0.0     0     0.0   726.9    0.00 
 126    8:40   0.53   37.5    70    5.2    88    13.1   726.5    0.00 
 126    8:50   0.73   39.0    67    7.0    85    14.3   726.5    0.00 
 126    9:00   0.77   39.3    64    6.9    76    12.5   726.6    0.00 
 126    9:10   0.80   40.1    63    7.4    76    13.7   726.7    0.00 
 126    9:20   0.66   41.0    60    7.1    81    13.7   726.9    0.00 
 126    9:30   0.47   40.6    58    6.2    78    12.5   727.1    0.00 
 126    9:40   0.69   41.0    57    6.5    78    14.9   727.3    0.00 
 126    9:50   0.59   40.9    55    7.5    82    17.9   727.4    0.00 
 126   10:00   0.55   41.0    55    7.7    72    15.5   727.4    0.00 
 126   10:10   0.57   41.6    54    5.5    89    14.9   727.5    0.00 
 126   10:20   0.51   42.1    52    5.1    95    15.5   727.5    0.00 
 126   10:30   0.35   41.1    54    6.6    78    16.7   727.5    0.00 
 126   10:40   0.36   41.1    54    6.6    79    19.7   727.6    0.00 
 126   10:50   0.48   41.5    54    8.4    74    17.3   727.7    0.00 
 126   11:00   0.37   41.7    53    8.7    77    18.5   727.7    0.00 
 126   11:10   0.41   41.8    56    2.1    80    15.5   727.7    0.00 
 126   11:20   0.33   42.0    55    5.8    69    13.7   727.7    0.00 
 126   11:30   0.80   42.5    56    6.6    80    16.7   727.6    0.00 
 126   11:40   0.52   43.5    54    7.4    81    16.1   727.3    0.00 
 126   11:50   0.20   40.2    64    7.9    83    19.7   727.6    0.00 
 126   12:00   0.49   36.8    78    7.0    81    13.7   727.7    0.00 
 126   12:10   1.10   40.1    75    2.5    80    10.8   727.5    0.00 
 126   12:20   0.92   43.6    65    0.0     0     0.0   727.3    0.00 
 126   12:30   0.51   43.8    58    0.0     0     0.0   727.3    0.01 
 126   12:40   0.96   44.5    56    5.0    92    14.9   727.2    0.00 
 126   12:50   0.65   46.4    47    2.8    82    17.3   727.1    0.00 
 126   13:00   0.45   45.7    46    6.9   107    18.5   727.2    0.00 
 126   13:10   0.81   45.9    46    9.4    97    19.7   727.2    0.01 
 126   13:20   0.93   47.5    44    9.6    80    20.3   727.2    0.00 
 126   13:30   1.03   48.7    41    8.9    77    19.1   727.2    0.00 
 126   13:40   0.76   48.3    39   10.3    99    22.7   727.3    0.00 
 126   13:50   0.65   47.9    39    9.7    80    17.9   727.2    0.01 
 126   14:00   0.23   45.7    47   14.5   124    33.4   727.4    0.00 
 126   14:10   0.32   41.2    62   13.8   125    26.2   728.0    0.00 
 126   14:20   0.20   38.5    65   13.0   117    29.8   728.2    0.00 
 126   14:30   0.42   39.1    66    6.2   116    13.7   728.0    0.00 
 126   14:40   0.61   42.8    59    0.4   126     7.2   727.7    0.00 
 126   14:50   0.69   45.0    54    0.0     0     0.0   727.5    0.00 
 126   15:00   0.70   46.2    48    8.9    91    20.9   727.4    0.00 
 126   15:10   0.71   47.0    43    9.5    88    20.3   727.3    0.00 
 126   15:20   0.52   45.9    40   10.9   106    23.3   727.5    0.00 
 126   15:30   0.52   45.9    38    5.9    89    19.1   727.5    0.00 
 126   15:40   0.45   46.9    35   10.0   101    22.1   727.6    0.00 
 126   15:50   0.49   45.6    38    9.5    94    22.7   727.6    0.00 
 126   16:00   0.30   45.0    39    8.1   119    20.3   727.8    0.00 
 126   16:10   0.51   46.5    37   10.7   113    22.7   728.0    0.00 
 126   16:20   0.29   45.5    38   10.4   119    21.5   728.1    0.00 
 126   16:30   0.38   44.7    39    5.1   103    16.7   728.3    0.00 
 126   16:40   0.35   45.5    38    8.3   107    20.3   728.4    0.00 
 126   16:50   0.40   44.4    39   10.0    98    19.1   728.6    0.00 
 126   17:00   0.21   43.0    40    8.2    98    19.1   728.6    0.00 
 126   17:10   0.12   42.1    42    5.7    94    17.3   728.5    0.00 
 126   17:20   0.17   41.9    42    6.4    96    15.5   728.6    0.00 
 126   17:30   0.14   41.7    44    5.9    77    14.9   728.7    0.00 
 126   17:40   0.13   41.5    46    6.2    82    15.5   728.7    0.00 
 126   17:50   0.10   41.4    45    4.2    93    12.5   728.6    0.00 
 126   18:00   0.10   42.1    40    8.6   119    19.1   728.7    0.00 
 126   18:10   0.12   42.4    37    8.6   125    16.1   728.8    0.00 
 126   18:20   0.10   43.3    34    7.9   122    14.3   728.9    0.00 
 126   18:30   0.09   42.8    33    7.5   119    14.9   729.1    0.00 
 126   18:40   0.04   41.7    33    0.0     0     0.0   729.0    0.00 
 126   18:50   0.01   40.5    34    0.0     0     0.0   729.1    0.00 
 126   19:00   0.01   39.6    32    7.0   134    16.7   729.2    0.00 
 126   19:10   0.00   39.3    30    3.9   139    10.8   729.3    0.00 
 126   19:20   0.00   38.7    30    0.0     0     0.0   729.4    0.00 
 126   19:30   0.00   38.4    30    0.0     0     0.0   729.5    0.00 
 126   19:40   0.00   37.9    31    0.0     0     0.0   730.1    0.00 
 126   19:50   0.00   36.5    33    0.0     0     0.0   730.2    0.00 
 126   20:00   0.00   35.6    34    0.0     0     0.0   730.3    0.00 
 126   20:10   0.00   34.7    36    0.0     0     0.0   730.4    0.00 
 126   20:20   0.00   34.3    36    0.4   184     3.6   730.4    0.00 
 126   20:30   0.00   34.0    36    0.0   171     1.8   730.7    0.00 
 126   20:40   0.00   33.4    38    0.0     0     0.0   730.4    0.00 
 126   20:50   0.00   32.2    41    0.0     0     0.0   730.6    0.00 
 126   21:00   0.00   31.6    41    0.0     0     0.0   730.8    0.00 
 126   21:10   0.00   31.5    41    0.0     0     0.0   731.0    0.00 
 126   21:20   0.00   31.3    42    0.1   200     3.0   731.1    0.00 
 126   21:30   0.00   30.8    43    0.0     0     0.0   731.1    0.00 
 126   21:40   0.00   30.5    44    1.3   216     4.8   731.2    0.00 
 126   21:50   0.00   30.5    44    0.0     0     0.0   731.3    0.00 
 126   22:00   0.00   30.1    46    0.0     0     0.0   731.4    0.00 
 126   22:10   0.00   29.7    48    0.0     0     0.0   731.5    0.00 
 126   22:20   0.00   29.6    47    0.0     0     0.0   731.6    0.00 
 126   22:30   0.00   29.0    50    0.0     0     0.0   731.5    0.00 
 126   22:40   0.00   28.3    52    0.0     0     0.0   731.5    0.00 
 126   22:50   0.00   28.5    52    0.0     0     0.0   731.6    0.00 
 126   23:00   0.00   28.6    50    0.0     0     0.0   731.6    0.00 
 126   23:10   0.00   28.3    50    0.0     0     0.0   731.7    0.00 
 126   23:20   0.00   28.0    52    0.0     0     0.0   731.7    0.00 
 126   23:30   0.00   27.7    53    0.0     0     0.0   731.7    0.00 
 126   23:40   0.00   27.5    53    0.0     0     0.0   731.7    0.00 
 126   23:50   0.00   27.9    52    0.0   220     1.2   731.7    0.00 
 127    0:00   0.00   27.7    53    0.0     0     0.0   731.8    0.00 
 127    0:10   0.00   26.8    55    0.0     0     0.0   731.9    0.00 
 127    0:20   0.00   27.0    55    0.0     0     0.0   732.0    0.00 
 127    0:30   0.00   26.4    57    0.0     0     0.0   732.1    0.00 
 127    0:40   0.00   26.1    57    0.0     0     0.0   732.2    0.00 
 127    0:50   0.00   26.2    57    0.0     0     0.0   732.3    0.00 
 127    1:00   0.00   26.2    57    0.0     0     0.0   732.2    0.00 

Return to Valle Toledo, Valles Caldera graphs page.


Western Regional Climate Center,wrcc@dri.edu